Time;durP1;ratioP1;P1;durP2;ratioP2;P2;SDS_P1;SDS_P2;PMS_P1;PMS_P2;Temp;Humidity;BMP_temperature;BMP_pressure;BME280_temperature;BME280_humidity;BME280_pressure;Samples;Min_cycle;Max_cycle;Signal;HPM_P1;HPM_P2
2022/05/13 00:02:16;;;;;;;4.40;3.85;;;;;;;;;;10379893;28;20288;-76
2022/05/13 00:07:16;;;;;;;5.50;3.97;;;;;;;;;;10381541;28;20511;-76
2022/05/13 00:12:17;;;;;;;4.23;3.20;;;;;;;;;;10388700;28;20077;-76
2022/05/13 00:17:17;;;;;;;5.72;3.33;;;;;;;;;;10388357;28;20361;-76
2022/05/13 00:22:19;;;;;;;4.10;3.70;;;;;;;;;;10393396;28;20038;-76
2022/05/13 00:27:21;;;;;;;4.97;3.60;;;;;;;;;;10372850;28;20373;-77
2022/05/13 00:32:21;;;;;;;5.73;3.53;;;;;;;;;;10376229;28;20045;-77
2022/05/13 00:37:21;;;;;;;4.30;3.53;;;;;;;;;;10380254;28;20338;-76
2022/05/13 00:42:22;;;;;;;4.30;3.03;;;;;;;;;;10383275;28;20356;-77
2022/05/13 00:47:23;;;;;;;5.43;4.03;;;;;;;;;;10383735;28;20132;-77
2022/05/13 00:52:25;;;;;;;3.40;3.00;;;;;;;;;;10397049;28;20136;-77
2022/05/13 00:57:25;;;;;;;4.45;3.05;;;;;;;;;;10387485;28;20038;-77
2022/05/13 01:02:26;;;;;;;4.97;3.42;;;;;;;;;;10382366;28;20210;-78
2022/05/13 01:07:27;;;;;;;3.20;2.90;;;;;;;;;;10381354;28;20389;-77
2022/05/13 01:12:29;;;;;;;5.35;3.70;;;;;;;;;;10385917;28;20038;-77
2022/05/13 01:22:52;;;;;;;4.15;3.45;;;;;;;;;;10390327;28;20033;-76
2022/05/13 01:27:54;;;;;;;4.87;4.10;;;;;;;;;;10388023;28;20465;-76
2022/05/13 01:32:55;;;;;;;6.28;4.22;;;;;;;;;;10376662;28;20037;-77
2022/05/13 01:37:56;;;;;;;6.13;4.55;;;;;;;;;;10375991;28;20338;-78
2022/05/13 01:42:56;;;;;;;6.10;4.35;;;;;;;;;;10375268;28;20038;-77
2022/05/13 01:47:57;;;;;;;6.00;4.28;;;;;;;;;;10375194;28;20042;-78
2022/05/13 01:52:58;;;;;;;5.60;4.70;;;;;;;;;;10389361;28;20041;-77
2022/05/13 01:58:00;;;;;;;6.03;4.80;;;;;;;;;;10388016;28;20054;-77
2022/05/13 02:08:20;;;;;;;5.63;5.03;;;;;;;;;;10380074;28;20073;-79
2022/05/13 02:13:20;;;;;;;7.50;5.70;;;;;;;;;;10376872;28;20058;-79
2022/05/13 02:18:21;;;;;;;6.70;5.77;;;;;;;;;;10375777;28;20440;-77
2022/05/13 02:23:21;;;;;;;7.57;5.55;;;;;;;;;;10357813;28;20070;-80
2022/05/13 02:28:21;;;;;;;8.23;5.93;;;;;;;;;;10376167;28;20481;-77
2022/05/13 02:33:22;;;;;;;7.43;5.97;;;;;;;;;;10374269;28;20273;-76
2022/05/13 02:38:23;;;;;;;7.78;6.82;;;;;;;;;;10379923;28;20331;-77
2022/05/13 02:43:23;;;;;;;6.65;6.00;;;;;;;;;;10355276;28;20045;-76
2022/05/13 02:48:24;;;;;;;7.05;6.20;;;;;;;;;;10365638;28;20100;-76
2022/05/13 02:53:24;;;;;;;7.22;5.82;;;;;;;;;;10383965;28;20204;-78
2022/05/13 02:58:26;;;;;;;7.55;5.63;;;;;;;;;;10386088;28;20045;-77
2022/05/13 03:03:27;;;;;;;6.75;6.05;;;;;;;;;;10384995;28;20048;-77
2022/05/13 03:08:28;;;;;;;6.22;5.20;;;;;;;;;;10363447;28;20038;-79
2022/05/13 03:13:29;;;;;;;6.60;5.55;;;;;;;;;;10366575;28;20061;-77
2022/05/13 03:18:29;;;;;;;9.05;6.65;;;;;;;;;;10346343;28;20042;-77
2022/05/13 03:23:30;;;;;;;7.63;6.18;;;;;;;;;;10383011;28;20108;-77
2022/05/13 03:28:31;;;;;;;7.22;6.22;;;;;;;;;;10383340;28;20041;-79
2022/05/13 03:33:32;;;;;;;8.33;6.27;;;;;;;;;;10380144;28;20038;-78
2022/05/13 03:38:33;;;;;;;8.27;6.30;;;;;;;;;;10385675;28;20277;-77
2022/05/13 03:43:33;;;;;;;7.18;6.45;;;;;;;;;;10380606;28;20044;-77
2022/05/13 03:48:33;;;;;;;7.77;5.70;;;;;;;;;;10363719;28;20067;-78
2022/05/13 03:53:34;;;;;;;6.90;6.00;;;;;;;;;;10364182;28;20502;-78
2022/05/13 03:58:34;;;;;;;7.20;6.50;;;;;;;;;;10352748;28;20267;-76
2022/05/13 04:03:35;;;;;;;8.75;6.32;;;;;;;;;;10372415;28;20280;-77
2022/05/13 04:19:14;;;;;;;7.90;7.03;;;;;;;;;;10366156;28;20064;-76
2022/05/13 04:24:16;;;;;;;7.07;5.93;;;;;;;;;;10388332;28;20041;-76
2022/05/13 04:29:17;;;;;;;8.40;7.20;;;;;;;;;;10410473;28;20085;-78
2022/05/13 04:34:17;;;;;;;8.13;6.70;;;;;;;;;;10389359;28;20041;-77
2022/05/13 04:39:17;;;;;;;9.70;6.67;;;;;;;;;;10378874;28;20037;-77
2022/05/13 04:44:18;;;;;;;8.07;6.20;;;;;;;;;;10362930;28;20042;-76
2022/05/13 04:49:19;;;;;;;8.68;6.00;;;;;;;;;;10361572;28;20335;-77
2022/05/13 04:54:19;;;;;;;9.20;5.95;;;;;;;;;;10381932;28;20054;-76
2022/05/13 04:59:20;;;;;;;7.70;5.78;;;;;;;;;;10383599;28;20062;-77
2022/05/13 05:04:20;;;;;;;6.50;5.90;;;;;;;;;;10390638;28;20038;-76
2022/05/13 05:09:20;;;;;;;7.33;5.70;;;;;;;;;;10323376;28;20054;-76
2022/05/13 05:14:22;;;;;;;8.63;7.35;;;;;;;;;;10334844;28;20073;-76
2022/05/13 05:19:23;;;;;;;8.37;7.37;;;;;;;;;;10337970;28;20046;-76
2022/05/13 05:24:27;;;;;;;8.63;6.50;;;;;;;;;;10348605;28;20057;-75
2022/05/13 05:29:28;;;;;;;8.25;6.05;;;;;;;;;;10343179;28;20054;-76
2022/05/13 05:34:28;;;;;;;8.27;6.03;;;;;;;;;;10336030;28;20042;-77
2022/05/13 05:39:28;;;;;;;10.10;6.83;;;;;;;;;;10317442;28;20693;-75
2022/05/13 05:44:29;;;;;;;5.77;5.07;;;;;;;;;;10333028;28;20038;-76
2022/05/13 05:49:29;;;;;;;6.35;4.75;;;;;;;;;;10316946;28;20065;-77
2022/05/13 05:59:49;;;;;;;5.07;3.28;;;;;;;;;;10341662;28;20277;-76
2022/05/13 06:04:49;;;;;;;5.93;3.00;;;;;;;;;;10333596;28;20034;-76
2022/05/13 06:09:50;;;;;;;4.60;2.60;;;;;;;;;;10312434;28;20450;-76
2022/05/13 06:14:52;;;;;;;4.07;2.97;;;;;;;;;;10331962;28;20138;-76
2022/05/13 06:19:53;;;;;;;3.25;2.58;;;;;;;;;;10330275;28;20092;-76
2022/05/13 06:24:53;;;;;;;4.35;2.70;;;;;;;;;;10319783;28;20196;-75
2022/05/13 06:29:54;;;;;;;4.40;2.58;;;;;;;;;;10338984;28;20053;-76
2022/05/13 06:34:54;;;;;;;4.80;2.67;;;;;;;;;;10338942;28;20049;-75
2022/05/13 06:39:54;;;;;;;5.80;3.03;;;;;;;;;;10337829;28;20034;-75
2022/05/13 06:44:54;;;;;;;3.97;2.57;;;;;;;;;;10339834;28;20031;-77
2022/05/13 06:49:55;;;;;;;4.53;2.73;;;;;;;;;;10337958;28;20054;-76
2022/05/13 06:54:55;;;;;;;5.63;2.40;;;;;;;;;;10322711;28;20046;-76
2022/05/13 06:59:56;;;;;;;5.53;3.10;;;;;;;;;;10345733;28;20042;-76
2022/05/13 07:04:56;;;;;;;3.67;2.43;;;;;;;;;;10339917;28;20038;-76
2022/05/13 07:09:57;;;;;;;5.75;2.35;;;;;;;;;;10327998;28;20292;-78
2022/05/13 07:14:57;;;;;;;6.03;2.70;;;;;;;;;;10337881;28;20038;-76
2022/05/13 07:19:58;;;;;;;6.33;4.03;;;;;;;;;;10338952;28;20429;-76
2022/05/13 07:24:59;;;;;;;5.23;2.43;;;;;;;;;;10337640;28;20277;-76
2022/05/13 07:30:00;;;;;;;4.32;2.63;;;;;;;;;;10337466;28;20133;-74
2022/05/13 07:35:00;;;;;;;6.57;2.75;;;;;;;;;;10358911;28;20037;-75
2022/05/13 07:45:20;;;;;;;5.93;2.42;;;;;;;;;;10341811;28;20065;-75
2022/05/13 07:50:21;;;;;;;4.03;2.28;;;;;;;;;;10337956;28;20112;-75
2022/05/13 07:55:21;;;;;;;5.13;2.40;;;;;;;;;;10319644;28;20201;-76
2022/05/13 08:00:32;;;;;;;5.25;2.45;;;;;;;;;;10336598;28;20042;-76
2022/05/13 08:05:37;;;;;;;4.68;2.40;;;;;;;;;;10339163;28;20034;-76
2022/05/13 08:10:39;;;;;;;5.30;2.25;;;;;;;;;;10340338;28;20393;-74
2022/05/13 08:15:40;;;;;;;2.97;2.13;;;;;;;;;;10322584;28;20039;-75
2022/05/13 08:20:41;;;;;;;5.20;3.22;;;;;;;;;;10322752;28;20129;-75
2022/05/13 08:25:44;;;;;;;8.45;5.57;;;;;;;;;;10343019;28;20053;-77
2022/05/13 08:30:45;;;;;;;4.03;2.00;;;;;;;;;;10336747;28;20053;-75
2022/05/13 08:35:50;;;;;;;4.57;2.08;;;;;;;;;;10319074;28;20038;-75
2022/05/13 08:40:57;;;;;;;4.13;2.65;;;;;;;;;;10335343;28;20069;-76
2022/05/13 08:46:18;;;;;;;5.50;3.17;;;;;;;;;;10308606;28;20056;-77
2022/05/13 08:51:24;;;;;;;3.67;2.60;;;;;;;;;;10314872;28;20049;-77
2022/05/13 08:56:32;;;;;;;4.00;2.45;;;;;;;;;;10318503;28;20054;-76
2022/05/13 09:01:35;;;;;;;3.75;2.45;;;;;;;;;;10319060;28;20056;-76
2022/05/13 09:06:40;;;;;;;5.00;2.50;;;;;;;;;;10320108;28;20121;-76
2022/05/13 09:11:54;;;;;;;5.05;3.20;;;;;;;;;;10353664;28;20030;-75
2022/05/13 09:17:13;;;;;;;4.45;2.60;;;;;;;;;;10350380;28;20049;-77
2022/05/13 09:22:14;;;;;;;3.67;2.40;;;;;;;;;;10336423;28;20162;-76
2022/05/13 09:27:14;;;;;;;3.43;2.43;;;;;;;;;;10336981;28;20057;-77
2022/05/13 09:32:28;;;;;;;4.30;2.50;;;;;;;;;;10299790;28;20732;-75
2022/05/13 09:37:35;;;;;;;6.88;2.60;;;;;;;;;;10330422;28;20430;-76
2022/05/13 09:42:37;;;;;;;4.78;2.72;;;;;;;;;;10314880;28;20046;-76
2022/05/13 09:47:38;;;;;;;5.10;2.40;;;;;;;;;;10333457;28;20482;-74
2022/05/13 09:52:38;;;;;;;4.38;2.55;;;;;;;;;;10285877;28;20121;-76
2022/05/13 09:57:39;;;;;;;2.75;2.33;;;;;;;;;;10338241;28;20427;-73
2022/05/13 10:02:41;;;;;;;5.15;2.47;;;;;;;;;;10346480;28;20046;-75
2022/05/13 10:07:53;;;;;;;8.55;2.38;;;;;;;;;;10342347;28;20057;-73
2022/05/13 10:18:24;;;;;;;5.25;3.88;;;;;;;;;;10346844;28;20038;-73
2022/05/13 10:23:30;;;;;;;4.25;2.35;;;;;;;;;;10346315;28;20068;-78
2022/05/13 10:28:45;;;;;;;3.42;2.20;;;;;;;;;;10326722;28;20042;-76
2022/05/13 10:33:52;;;;;;;4.75;2.08;;;;;;;;;;10344755;28;20485;-75
2022/05/13 10:39:10;;;;;;;3.13;2.05;;;;;;;;;;10345676;28;20042;-76
2022/05/13 10:44:17;;;;;;;3.22;2.17;;;;;;;;;;10344886;28;20042;-77
2022/05/13 10:49:19;;;;;;;5.57;2.00;;;;;;;;;;10331434;28;20128;-79
2022/05/13 10:54:37;;;;;;;6.43;1.80;;;;;;;;;;10355338;28;20481;-76
2022/05/13 10:59:38;;;;;;;4.57;1.67;;;;;;;;;;10349012;28;20129;-76
2022/05/13 11:04:50;;;;;;;3.30;1.80;;;;;;;;;;10345689;28;20108;-79
2022/05/13 11:10:08;;;;;;;2.60;2.00;;;;;;;;;;10325618;28;20062;-76
2022/05/13 11:15:19;;;;;;;5.25;1.95;;;;;;;;;;10339490;28;20157;-77
2022/05/13 11:20:20;;;;;;;4.22;1.98;;;;;;;;;;10338753;28;20393;-76
2022/05/13 11:30:45;;;;;;;3.97;2.00;;;;;;;;;;10342175;28;20050;-75
2022/05/13 11:35:55;;;;;;;3.47;1.80;;;;;;;;;;10325045;28;20353;-78
2022/05/13 11:40:56;;;;;;;3.00;1.73;;;;;;;;;;10323468;28;20035;-77
2022/05/13 11:45:59;;;;;;;4.00;1.70;;;;;;;;;;10332016;28;20385;-77
2022/05/13 11:51:02;;;;;;;3.80;1.90;;;;;;;;;;10334115;28;20281;-76
2022/05/13 11:56:26;;;;;;;3.00;1.60;;;;;;;;;;10327551;28;20050;-78
2022/05/13 12:01:38;;;;;;;3.78;1.70;;;;;;;;;;10311986;28;20046;-77
2022/05/13 12:06:51;;;;;;;3.78;1.90;;;;;;;;;;10323317;28;20405;-79
2022/05/13 12:11:59;;;;;;;6.05;2.17;;;;;;;;;;10332383;28;20031;-79
2022/05/13 12:17:08;;;;;;;4.47;1.73;;;;;;;;;;10337849;28;20046;-78
2022/05/13 12:22:12;;;;;;;4.68;1.80;;;;;;;;;;10328090;28;20043;-77
2022/05/13 12:27:13;;;;;;;2.65;1.50;;;;;;;;;;10344450;28;20137;-79
2022/05/13 12:32:23;;;;;;;3.40;1.60;;;;;;;;;;10329668;28;20098;-76
2022/05/13 12:37:36;;;;;;;3.78;1.70;;;;;;;;;;10338059;28;20058;-77
2022/05/13 12:42:51;;;;;;;3.35;2.30;;;;;;;;;;10320271;28;20156;-78
2022/05/13 12:47:55;;;;;;;3.92;2.05;;;;;;;;;;10338992;28;20046;-77
2022/05/13 12:52:55;;;;;;;3.72;1.85;;;;;;;;;;10338495;28;20080;-79
2022/05/13 12:58:04;;;;;;;4.63;2.03;;;;;;;;;;10341792;28;20071;-77
2022/05/13 13:03:06;;;;;;;5.47;1.70;;;;;;;;;;10339826;28;20394;-78
2022/05/13 13:08:22;;;;;;;3.15;1.73;;;;;;;;;;10326604;28;20438;-77
2022/05/13 13:13:31;;;;;;;4.45;1.92;;;;;;;;;;10320854;28;20042;-78
2022/05/13 13:18:32;;;;;;;4.07;1.50;;;;;;;;;;10309165;28;20083;-79
2022/05/13 13:23:35;;;;;;;3.93;1.47;;;;;;;;;;10317792;28;20042;-77
2022/05/13 13:28:36;;;;;;;;;;;;;;;;;;10336281;28;20050;-77
2022/05/13 13:33:48;;;;;;;3.33;1.67;;;;;;;;;;10316134;28;20328;-77
2022/05/13 13:38:53;;;;;;;3.10;1.70;;;;;;;;;;10320368;28;20101;-78
2022/05/13 13:43:54;;;;;;;4.03;1.95;;;;;;;;;;10350315;28;20046;-78
2022/05/13 13:48:56;;;;;;;4.20;1.70;;;;;;;;;;10363108;28;20500;-78
2022/05/13 13:54:02;;;;;;;2.93;1.67;;;;;;;;;;10326142;28;20042;-78
2022/05/13 13:59:09;;;;;;;3.47;1.70;;;;;;;;;;10325802;28;20276;-78
2022/05/13 14:04:11;;;;;;;2.97;1.58;;;;;;;;;;10342988;28;20096;-79
2022/05/13 14:09:11;;;;;;;;;;;;;;;;;;10325671;28;20129;-78
2022/05/13 14:14:12;;;;;;;3.47;1.55;;;;;;;;;;10346969;28;19910;-77
2022/05/13 14:19:19;;;;;;;3.72;1.50;;;;;;;;;;10316348;28;20549;-78
2022/05/13 14:24:31;;;;;;;3.42;1.42;;;;;;;;;;10318327;28;20117;-78
2022/05/13 14:29:32;;;;;;;3.85;1.40;;;;;;;;;;10333044;28;20401;-77
2022/05/13 14:34:33;;;;;;;3.30;1.67;;;;;;;;;;10312805;28;20034;-78
2022/05/13 14:39:49;;;;;;;2.42;1.55;;;;;;;;;;10331828;28;20050;-77
2022/05/13 14:44:51;;;;;;;3.70;1.33;;;;;;;;;;10333887;28;20188;-77
2022/05/13 14:50:12;;;;;;;4.68;1.77;;;;;;;;;;10322312;28;20038;-78
2022/05/13 14:55:16;;;;;;;3.03;1.40;;;;;;;;;;10338859;28;20471;-77
2022/05/13 15:00:18;;;;;;;3.35;1.40;;;;;;;;;;10337297;28;20405;-77
2022/05/13 15:05:20;;;;;;;2.78;1.55;;;;;;;;;;10319770;28;20046;-78
2022/05/13 15:10:22;;;;;;;2.33;1.50;;;;;;;;;;10337659;28;20563;-77
2022/05/13 15:15:24;;;;;;;3.25;1.30;;;;;;;;;;10331015;28;20333;-78
2022/05/13 15:20:25;;;;;;;;;;;;;;;;;;10343259;28;20043;-76
2022/05/13 15:25:26;;;;;;;4.87;1.40;;;;;;;;;;10352226;28;20040;-79
2022/05/13 15:30:26;;;;;;;3.80;1.65;;;;;;;;;;10337783;28;20117;-77
2022/05/13 15:35:27;;;;;;;2.83;1.42;;;;;;;;;;10319011;28;20120;-78
2022/05/13 15:40:27;;;;;;;2.30;1.20;;;;;;;;;;10318083;28;20062;-76
2022/05/13 15:45:30;;;;;;;2.35;1.63;;;;;;;;;;10323352;28;20266;-77
2022/05/13 15:55:55;;;;;;;4.20;1.70;;;;;;;;;;10351532;28;19913;-76
2022/05/13 16:00:55;;;;;;;3.97;1.30;;;;;;;;;;10335780;28;20058;-76
2022/05/13 16:05:56;;;;;;;4.97;1.63;;;;;;;;;;10339819;28;20141;-77
2022/05/13 16:10:58;;;;;;;3.78;1.40;;;;;;;;;;10335145;28;20120;-77
2022/05/13 16:16:01;;;;;;;3.93;1.17;;;;;;;;;;10335335;28;20118;-78
2022/05/13 16:21:02;;;;;;;3.45;1.50;;;;;;;;;;10318999;28;20031;-76
2022/05/13 16:26:06;;;;;;;1.30;1.20;;;;;;;;;;10334900;28;20030;-78
2022/05/13 16:31:07;;;;;;;4.28;1.30;;;;;;;;;;10333383;28;20486;-77
2022/05/13 16:36:08;;;;;;;2.75;1.45;;;;;;;;;;10317167;28;20074;-77
2022/05/13 16:41:08;;;;;;;2.88;1.67;;;;;;;;;;10335166;28;20196;-77
2022/05/13 16:46:09;;;;;;;4.10;1.30;;;;;;;;;;10319123;28;20042;-78
2022/05/13 16:51:11;;;;;;;1.75;1.30;;;;;;;;;;10335074;28;20045;-76
2022/05/13 16:56:11;;;;;;;2.03;1.58;;;;;;;;;;10324036;28;20046;-77
2022/05/13 17:01:12;;;;;;;3.17;1.88;;;;;;;;;;10315793;28;20401;-77
2022/05/13 17:06:12;;;;;;;2.10;1.60;;;;;;;;;;10335239;28;20042;-76
2022/05/13 17:16:36;;;;;;;2.47;1.40;;;;;;;;;;10315934;28;20092;-76
2022/05/13 17:21:38;;;;;;;2.67;1.40;;;;;;;;;;10333147;28;20117;-78
2022/05/13 17:26:39;;;;;;;4.07;1.60;;;;;;;;;;10317270;28;20045;-76
2022/05/13 17:31:40;;;;;;;4.97;1.60;;;;;;;;;;10335211;28;20501;-75
2022/05/13 17:36:40;;;;;;;1.83;1.20;;;;;;;;;;10339420;28;20042;-75
2022/05/13 17:41:41;;;;;;;2.80;1.33;;;;;;;;;;10334081;28;20165;-76
2022/05/13 17:46:42;;;;;;;4.13;1.50;;;;;;;;;;10334720;28;20182;-76
2022/05/13 17:51:42;;;;;;;3.47;1.20;;;;;;;;;;10315113;28;20064;-77
2022/05/13 17:56:42;;;;;;;3.20;1.90;;;;;;;;;;10332362;28;20277;-77
2022/05/13 18:01:43;;;;;;;2.70;1.83;;;;;;;;;;10333155;28;20454;-77
2022/05/13 18:06:43;;;;;;;5.97;1.67;;;;;;;;;;10337706;28;20270;-76
2022/05/13 18:11:45;;;;;;;3.92;2.28;;;;;;;;;;10325185;28;20277;-76
2022/05/13 18:16:46;;;;;;;4.68;2.15;;;;;;;;;;10347403;28;20035;-78
2022/05/13 18:21:47;;;;;;;2.25;1.60;;;;;;;;;;10338860;28;20046;-77
2022/05/13 18:26:48;;;;;;;2.78;1.80;;;;;;;;;;10324105;28;20326;-76
2022/05/13 18:31:48;;;;;;;3.22;1.88;;;;;;;;;;10343419;28;20058;-77
2022/05/13 18:36:49;;;;;;;2.92;2.00;;;;;;;;;;10344019;28;20395;-80
2022/05/13 18:47:10;;;;;;;2.78;1.75;;;;;;;;;;10367886;28;19917;-78
2022/05/13 18:52:11;;;;;;;2.23;1.80;;;;;;;;;;10355773;28;20035;-79
2022/05/13 18:57:13;;;;;;;5.43;1.77;;;;;;;;;;10324515;28;20042;-78
2022/05/13 19:02:15;;;;;;;3.17;1.60;;;;;;;;;;10344105;28;20169;-77
2022/05/13 19:07:15;;;;;;;4.40;2.20;;;;;;;;;;10323752;28;20058;-78
2022/05/13 19:12:15;;;;;;;5.28;2.15;;;;;;;;;;10355962;28;20132;-79
2022/05/13 19:17:16;;;;;;;2.95;2.03;;;;;;;;;;10349384;28;20046;-78
2022/05/13 19:22:16;;;;;;;4.03;2.28;;;;;;;;;;10334785;28;20121;-79
2022/05/13 19:27:19;;;;;;;11.30;5.47;;;;;;;;;;10345572;28;20046;-79
2022/05/13 19:32:26;;;;;;;4.10;2.17;;;;;;;;;;10345523;28;20304;-81
2022/05/13 19:37:36;;;;;;;5.68;2.55;;;;;;;;;;10345971;28;20738;-80
2022/05/13 19:42:42;;;;;;;5.38;2.55;;;;;;;;;;10344428;28;20066;-79
2022/05/13 19:47:45;;;;;;;5.25;2.60;;;;;;;;;;10341494;28;20458;-77
2022/05/13 19:52:47;;;;;;;3.83;2.15;;;;;;;;;;10334451;28;20045;-79
2022/05/13 19:57:49;;;;;;;6.63;2.38;;;;;;;;;;10359324;28;20038;-80
2022/05/13 20:02:49;;;;;;;4.57;2.60;;;;;;;;;;10342504;28;20165;-81
2022/05/13 20:13:15;;;;;;;7.38;5.13;;;;;;;;;;10356711;28;20482;-81
2022/05/13 20:18:21;;;;;;;7.38;5.78;;;;;;;;;;10344071;28;20043;-80
2022/05/13 20:29:52;;;;;;;6.07;4.68;;;;;;;;;;10368700;28;20054;-78
2022/05/13 20:34:53;;;;;;;8.10;4.50;;;;;;;;;;10349264;28;20174;-80
2022/05/13 20:39:57;;;;;;;8.32;4.90;;;;;;;;;;10349815;28;20053;-78
2022/05/13 20:44:57;;;;;;;6.25;4.20;;;;;;;;;;10334978;28;20039;-81
2022/05/13 20:50:01;;;;;;;7.47;4.23;;;;;;;;;;10338755;28;20061;-80
2022/05/13 20:55:10;;;;;;;5.68;3.80;;;;;;;;;;10349346;28;20333;-81
2022/05/13 21:00:21;;;;;;;6.03;3.63;;;;;;;;;;10355048;28;20050;-79
2022/05/13 21:05:27;;;;;;;7.97;4.60;;;;;;;;;;10338739;28;20089;-79
2022/05/13 21:10:28;;;;;;;12.07;4.72;;;;;;;;;;10350052;28;20054;-78
2022/05/13 21:15:29;;;;;;;7.18;4.63;;;;;;;;;;10336819;28;20030;-79
2022/05/13 21:26:42;;;;;;;7.03;4.30;;;;;;;;;;10360069;28;20034;-82
2022/05/13 21:37:05;;;;;;;6.90;4.43;;;;;;;;;;10345810;28;20121;-80
2022/05/13 21:42:07;;;;;;;7.40;4.95;;;;;;;;;;10351164;28;20129;-81
2022/05/13 21:47:41;;;;;;;6.90;3.97;;;;;;;;;;10361484;28;20046;-81
2022/05/13 21:52:42;;;;;;;6.80;4.90;;;;;;;;;;10344086;28;20394;-81
2022/05/13 21:57:44;;;;;;;8.25;4.40;;;;;;;;;;10342475;28;20093;-80
2022/05/13 22:02:44;;;;;;;9.32;5.95;;;;;;;;;;10354553;28;20078;-81
2022/05/13 22:07:45;;;;;;;6.05;5.15;;;;;;;;;;10331558;28;20047;-80
2022/05/13 22:12:48;;;;;;;10.05;5.45;;;;;;;;;;10347984;28;20043;-80
2022/05/13 22:17:49;;;;;;;6.82;5.28;;;;;;;;;;10364721;28;20086;-80
2022/05/13 22:29:03;;;;;;;5.90;5.03;;;;;;;;;;10345903;28;20042;-81
2022/05/13 22:34:08;;;;;;;7.95;5.55;;;;;;;;;;10335214;28;20038;-78
2022/05/13 22:39:11;;;;;;;8.25;5.18;;;;;;;;;;10349326;28;20128;-80
2022/05/13 22:44:15;;;;;;;8.45;4.95;;;;;;;;;;10350228;28;20047;-79
2022/05/13 22:49:17;;;;;;;9.10;5.63;;;;;;;;;;10318411;28;20133;-79
2022/05/13 22:54:19;;;;;;;8.85;5.43;;;;;;;;;;10338916;28;20042;-79
2022/05/13 22:59:19;;;;;;;6.88;5.30;;;;;;;;;;10346622;28;20070;-78
2022/05/13 23:04:20;;;;;;;7.27;4.93;;;;;;;;;;10331101;28;20078;-79
2022/05/13 23:14:40;;;;;;;7.35;5.30;;;;;;;;;;10343525;28;20044;-78
2022/05/13 23:19:42;;;;;;;7.28;5.50;;;;;;;;;;10345154;28;20505;-76
2022/05/13 23:24:42;;;;;;;5.57;4.35;;;;;;;;;;10341725;28;20488;-78
2022/05/13 23:29:46;;;;;;;4.95;3.70;;;;;;;;;;10334281;28;20137;-78
2022/05/13 23:34:47;;;;;;;;;;;;;;;;;;10317549;28;20100;-78
2022/05/13 23:39:47;;;;;;;7.95;4.35;;;;;;;;;;10332074;28;20000;-78
2022/05/13 23:44:51;;;;;;;6.45;4.38;;;;;;;;;;10336052;28;20038;-78
2022/05/13 23:49:54;;;;;;;5.15;3.88;;;;;;;;;;10362932;28;20050;-79
